.
WxDataArchive / Data Records for 2012-09-06
2012-09-05 September 2012 2012-09-07

Data Records for Thursday, 06 September 2012

Time	Temp	Chill	HIndex	Humid	Dewpt	 Wind 	HiWind	WindDir	Rain 	Barom 
-----	----	-----	------	-----	-----	------	------	-------	-----	----- 
00:00	70.4	70.4	70.4	88	66.7	0	0	---	0.00	29.804 
00:05	70.3	70.3	70.3	88	66.6	0	0	---	0.00	29.804 
00:10	70.1	70.1	70.1	89	66.7	0	0	---	0.00	29.804 
00:15	69.9	69.9	69.9	89	66.5	0	0	---	0.00	29.821 
00:20	69.9	69.9	69.9	89	66.5	0	0	---	0.00	29.821 
00:25	69.8	69.8	69.8	90	66.7	0	0	---	0.00	29.821 
00:30	69.6	69.6	69.6	90	66.5	0	0	---	0.00	29.827 
00:35	69.4	69.4	69.4	90	66.3	0	0	---	0.00	29.827 
00:40	69.3	69.3	69.3	90	66.2	0	0	---	0.00	29.827 
00:45	69.1	69.1	69.1	91	66.4	0	0	---	0.00	29.831 
00:50	68.9	68.9	68.9	91	66.2	0	0	---	0.00	29.831 
00:55	68.9	68.9	68.9	91	66.2	0	0	---	0.00	29.831 
01:00	68.8	68.8	68.8	91	66.1	0	0	---	0.00	29.832 
01:05	68.6	68.6	68.6	91	65.9	0	0	---	0.00	29.832 
01:10	68.6	68.6	68.6	92	66.2	0	0	---	0.00	29.832 
01:15	68.6	68.6	68.6	92	66.2	0	0	---	0.00	29.830 
01:20	68.6	68.6	68.6	92	66.2	0	0	---	0.00	29.830 
01:25	68.6	68.6	68.6	92	66.2	0	0	---	0.00	29.830 
01:30	68.6	68.6	68.6	92	66.2	0	0	---	0.00	29.831 
01:35	68.8	68.8	68.8	93	66.7	0	0	---	0.00	29.831 
01:40	68.6	68.6	68.6	93	66.5	0	0	---	0.00	29.831 
01:45	68.6	68.6	68.6	93	66.5	0	0	---	0.00	29.828 
01:50	68.6	68.6	68.6	93	66.5	0	0	---	0.00	29.828 
01:55	68.4	68.4	68.4	93	66.3	0	0	---	0.00	29.828 
02:00	68.4	68.4	68.4	93	66.3	0	0	---	0.00	29.828 
02:05	68.4	68.4	68.4	93	66.3	0	0	---	0.00	29.828 
02:10	68.3	68.3	68.3	93	66.2	0	0	---	0.00	29.828 
02:15	68.3	68.3	68.3	93	66.2	0	0	---	0.00	29.825 
02:20	68.1	68.1	68.1	93	66.0	0	0	---	0.00	29.825 
02:25	68.3	68.3	68.3	94	66.5	0	0	---	0.00	29.825 
02:30	68.3	68.3	68.3	94	66.5	0	0	---	0.00	29.825 
02:35	68.3	68.3	68.3	94	66.5	0	0	---	0.00	29.825 
02:40	68.3	68.3	68.3	94	66.5	0	0	---	0.00	29.825 
02:45	68.3	68.3	68.3	94	66.5	0	0	---	0.00	29.827 
02:50	68.3	68.3	68.3	94	66.5	0	0	---	0.00	29.827 
02:55	68.3	68.3	68.3	94	66.5	0	1	315	0.00	29.827 
03:00	68.1	68.1	68.1	94	66.3	0	1	315	0.00	29.829 
03:05	68.1	68.1	68.1	94	66.3	0	1	315	0.00	29.829 
03:10	68.1	68.1	68.1	94	66.3	0	0	---	0.00	29.829 
03:15	67.9	67.9	67.9	94	66.1	0	1	315	0.00	29.827 
03:20	67.9	67.9	67.9	94	66.1	0	0	---	0.00	29.827 
03:25	67.9	67.9	67.9	94	66.1	0	1	315	0.00	29.827 
03:30	67.8	67.8	67.8	94	66.0	0	1	315	0.00	29.833 
03:35	67.8	67.8	67.8	94	66.0	0	1	315	0.00	29.833 
03:40	67.8	67.8	67.8	94	66.0	0	1	315	0.00	29.833 
03:45	67.8	67.8	67.8	94	66.0	0	2	315	0.00	29.834 
03:50	67.8	67.8	67.8	94	66.0	0	2	315	0.00	29.834 
03:55	67.8	67.8	67.8	94	66.0	0	1	315	0.00	29.834 
04:00	67.6	67.6	67.6	94	65.8	0	0	---	0.00	29.827 
04:05	67.6	67.6	67.6	93	65.5	0	0	---	0.00	29.827 
04:10	67.6	67.6	67.6	93	65.5	0	0	---	0.00	29.827 
04:15	67.6	67.6	67.6	93	65.5	0	0	---	0.00	29.830 
04:20	67.6	67.6	67.6	93	65.5	0	1	315	0.00	29.830 
04:25	67.6	67.6	67.6	93	65.5	0	0	---	0.00	29.830 
04:30	67.4	67.4	67.4	93	65.3	0	0	---	0.00	29.836 
04:35	67.4	67.4	67.4	93	65.3	0	0	---	0.00	29.836 
04:40	67.3	67.3	67.3	93	65.2	0	0	---	0.00	29.836 
04:45	67.3	67.3	67.3	93	65.2	0	0	---	0.00	29.838 
04:50	67.1	67.1	67.1	93	65.0	0	0	---	0.00	29.838 
04:55	67.1	67.1	67.1	93	65.0	0	0	---	0.00	29.838 
05:00	66.9	66.9	66.9	93	64.8	0	0	---	0.00	29.838 
05:05	66.8	66.8	66.8	93	64.7	0	0	---	0.00	29.838 
05:10	66.8	66.8	66.8	93	64.7	0	0	---	0.00	29.838 
05:15	66.6	66.6	66.6	93	64.5	0	0	---	0.00	29.838 
05:20	66.4	66.4	66.4	93	64.3	0	0	---	0.00	29.838 
05:25	66.4	66.4	66.4	93	64.3	0	0	---	0.00	29.838 
05:30	66.4	66.4	66.4	93	64.3	0	0	---	0.00	29.841 
05:35	66.3	66.3	66.3	93	64.2	0	0	---	0.00	29.841 
05:40	66.3	66.3	66.3	93	64.2	0	0	---	0.00	29.841 
05:45	66.3	66.3	66.3	93	64.2	0	0	---	0.00	29.843 
05:50	66.1	66.1	66.1	93	64.0	0	0	---	0.00	29.843 
05:55	66.0	66.0	66.0	93	63.9	0	0	---	0.00	29.843 
06:00	66.0	66.0	66.0	93	63.9	0	0	---	0.00	29.843 
06:05	65.8	65.8	65.8	93	63.7	0	0	---	0.00	29.843 
06:10	65.6	65.6	65.6	94	63.8	0	0	---	0.00	29.843 
06:15	65.6	65.6	65.6	94	63.8	0	0	---	0.00	29.842 
06:20	65.6	65.6	65.6	94	63.8	0	0	---	0.00	29.842 
06:25	65.6	65.6	65.6	94	63.8	0	0	---	0.00	29.842 
06:30	65.6	65.6	65.6	94	63.8	0	0	---	0.00	29.849 
06:35	65.6	65.6	65.6	94	63.8	0	0	---	0.00	29.849 
06:40	65.8	65.8	65.8	94	64.0	0	0	---	0.00	29.849 
06:45	66.0	66.0	66.0	94	64.2	0	0	---	0.00	29.854 
06:50	66.1	66.1	66.1	94	64.3	0	0	---	0.00	29.854 
06:55	66.3	66.3	66.3	95	64.8	0	0	---	0.00	29.854 
07:00	66.4	66.4	66.4	95	64.9	0	0	---	0.00	29.856 
07:05	66.4	66.4	66.4	95	64.9	0	0	---	0.00	29.856 
07:10	66.4	66.4	66.4	95	64.9	0	0	---	0.00	29.856 
07:15	66.4	66.4	66.4	95	64.9	0	0	---	0.00	29.863 
07:20	66.6	66.6	66.6	95	65.1	0	0	---	0.00	29.863 
07:25	66.6	66.6	66.6	95	65.1	0	0	---	0.00	29.863 
07:30	66.8	66.8	66.8	95	65.3	0	0	---	0.00	29.871 
07:35	66.8	66.8	66.8	95	65.3	0	0	---	0.00	29.871 
07:40	66.9	66.9	66.9	95	65.4	0	0	---	0.00	29.871 
07:45	67.1	67.1	67.1	95	65.6	0	0	---	0.00	29.874 
07:50	67.1	67.1	67.1	95	65.6	0	0	---	0.00	29.874 
07:55	67.3	67.3	67.3	95	65.8	0	0	---	0.00	29.874 
08:00	67.3	67.3	67.3	95	65.8	0	0	---	0.00	29.879 
08:05	67.3	67.3	67.3	95	65.8	0	0	---	0.00	29.879 
08:10	67.4	67.4	67.4	94	65.6	0	0	---	0.00	29.879 
08:15	67.4	67.4	67.4	94	65.6	0	0	---	0.00	29.886 
08:20	67.6	67.6	67.6	94	65.8	0	0	---	0.00	29.886 
08:25	67.8	67.8	67.8	94	66.0	0	0	---	0.00	29.886 
08:30	68.1	68.1	68.1	94	66.3	0	0	---	0.00	29.884 
08:35	68.3	68.3	68.3	94	66.5	0	0	---	0.00	29.884 
08:40	68.4	68.4	68.4	94	66.6	0	0	---	0.00	29.884 
08:45	68.6	68.6	68.6	93	66.5	0	0	---	0.00	29.885 
08:50	68.8	68.8	68.8	93	66.7	0	0	---	0.00	29.885 
08:55	68.9	68.9	68.9	93	66.8	0	2	315	0.00	29.885 
09:00	69.4	69.4	69.4	92	67.0	0	3	315	0.00	29.884 
09:05	69.9	69.9	69.9	92	67.5	0	3	315	0.00	29.884 
09:10	70.1	70.1	70.1	91	67.3	1	2	315	0.00	29.884 
09:15	70.3	70.3	70.3	90	67.2	1	2	315	0.00	29.881 
09:20	70.3	70.3	70.3	90	67.2	1	3	315	0.00	29.881 
09:25	70.3	70.3	70.3	89	66.9	0	1	315	0.00	29.881 
09:30	70.4	70.4	70.4	88	66.7	0	2	315	0.00	29.880 
09:35	70.6	70.6	70.6	88	66.9	1	2	315	0.00	29.880 
09:40	70.8	70.8	70.8	88	67.1	1	2	315	0.00	29.880 
09:45	70.9	70.9	70.9	87	66.8	0	3	315	0.00	29.877 
09:50	71.3	71.3	71.3	87	67.2	0	2	315	0.00	29.877 
09:55	71.6	71.6	71.6	86	67.2	0	2	315	0.00	29.877 
10:00	72.0	72.0	72.0	86	67.6	1	3	315	0.00	29.879 
10:05	72.3	72.3	72.3	85	67.5	1	2	315	0.00	29.879 
10:10	72.8	72.8	72.8	84	67.7	1	2	315	0.00	29.879 
10:15	73.2	73.2	73.2	84	68.1	1	3	315	0.00	29.886 
10:20	73.7	73.7	73.7	82	67.9	1	3	292	0.00	29.886 
10:25	74.2	74.2	74.2	81	68.0	1	3	292	0.00	29.886 
10:30	74.7	74.7	74.7	81	68.5	0	3	292	0.00	29.886 
10:35	75.1	75.1	75.6	81	68.9	0	2	292	0.00	29.886 
10:40	75.4	75.4	76.2	79	68.4	0	1	292	0.00	29.886 
10:45	76.0	76.0	77.2	78	68.6	0	1	292	0.00	29.883 
10:50	76.3	76.3	77.6	78	68.9	0	1	292	0.00	29.883 
10:55	77.4	77.4	79.3	77	69.6	0	1	292	0.00	29.883 
11:00	78.1	78.1	80.3	75	69.5	0	1	292	0.00	29.885 
11:05	78.3	78.3	80.6	74	69.3	0	1	292	0.00	29.885 
11:10	78.5	78.5	80.9	73	69.1	0	1	292	0.00	29.885 
11:15	79.2	79.2	81.9	72	69.4	0	2	292	0.00	29.886 
11:20	79.8	79.8	82.6	70	69.1	0	1	292	0.00	29.886 
11:25	80.3	80.3	83.4	70	69.6	0	1	292	0.00	29.886 
11:30	80.3	80.3	83.4	70	69.6	1	2	292	0.00	29.885 
11:35	80.5	80.5	83.6	69	69.4	0	1	292	0.00	29.885 
11:40	80.5	80.5	83.5	68	68.9	0	2	292	0.00	29.885 
11:45	80.9	80.9	84.1	68	69.3	0	1	292	0.00	29.887 
11:50	81.1	81.1	84.3	67	69.1	1	3	292	0.00	29.887 
11:55	81.1	81.1	84.0	65	68.2	0	1	292	0.00	29.887 
12:00	81.4	81.4	84.1	63	67.6	1	2	292	0.00	29.888 
12:05	81.6	81.6	84.7	65	68.7	0	1	292	0.00	29.888 
12:10	81.8	81.8	84.1	60	66.5	1	3	292	0.00	29.888 
12:15	82.2	82.2	84.7	60	66.9	1	2	292	0.00	29.887 
12:20	82.6	82.6	85.3	60	67.3	0	2	292	0.00	29.887 
12:25	82.8	82.8	85.4	59	67.0	0	3	292	0.00	29.887 
12:30	82.8	82.8	85.4	59	67.0	1	2	315	0.00	29.882 
12:35	82.8	82.8	85.2	58	66.5	0	2	315	0.00	29.882 
12:40	83.2	83.2	86.0	59	67.4	1	3	315	0.00	29.882 
12:45	83.6	83.6	86.1	57	66.7	1	2	315	0.00	29.883 
12:50	83.6	83.6	86.1	57	66.7	1	4	315	0.00	29.883 
12:55	83.6	83.6	85.5	54	65.2	2	3	315	0.00	29.883 
13:00	83.6	83.6	85.0	52	64.1	1	3	315	0.00	29.883 
13:05	82.8	82.8	84.4	54	64.4	1	3	315	0.00	29.883 
13:10	82.6	82.6	84.1	54	64.2	1	4	315	0.00	29.883 
13:15	83.2	83.2	85.3	56	65.8	1	2	338	0.00	29.883 
13:20	83.4	83.4	85.0	53	64.4	2	4	315	0.00	29.883 
13:25	83.0	83.0	84.1	51	63.0	2	4	315	0.00	29.883 
13:30	82.6	82.6	84.1	54	64.2	1	3	270	0.00	29.883 
13:35	82.4	82.4	83.7	53	63.5	1	3	270	0.00	29.883 
13:40	82.4	82.4	83.9	54	64.1	0	1	270	0.00	29.883 
13:45	82.6	82.6	84.1	54	64.2	1	3	292	0.00	29.881 
13:50	83.0	83.0	84.7	54	64.6	2	4	292	0.00	29.881 
13:55	82.6	82.6	84.0	53	63.7	1	3	292	0.00	29.881 
14:00	83.0	83.0	85.3	57	66.2	2	3	292	0.00	29.876 
14:05	83.8	83.8	85.5	53	64.8	2	5	315	0.00	29.876 
14:10	84.0	84.0	85.6	52	64.4	1	5	270	0.00	29.876 
14:15	83.4	83.4	84.6	51	63.3	3	5	270	0.00	29.876 
14:20	84.0	84.0	84.9	49	62.8	3	5	270	0.00	29.876 
14:25	84.3	84.3	85.1	48	62.4	2	4	315	0.00	29.876 
14:30	85.1	85.1	85.7	46	62.0	1	4	315	0.00	29.869 
14:35	85.5	85.5	85.5	43	60.4	3	7	292	0.00	29.869 
14:40	85.5	85.5	85.7	44	61.1	3	5	270	0.00	29.869 
14:45	85.3	85.3	85.9	46	62.1	2	4	315	0.00	29.866 
14:50	85.7	85.7	86.0	44	61.2	2	4	270	0.00	29.866 
14:55	85.9	85.9	86.2	44	61.4	2	4	292	0.00	29.866 
15:00	85.7	85.7	86.0	44	61.2	2	4	292	0.00	29.862 
15:05	85.9	85.9	86.4	45	62.1	2	5	315	0.00	29.862 
15:10	86.1	86.1	86.5	44	61.6	3	6	315	0.00	29.862 
15:15	86.3	86.3	86.5	43	61.1	2	4	248	0.00	29.863 
15:20	86.3	86.3	86.5	43	61.1	2	4	248	0.00	29.863 
15:25	86.3	86.3	86.5	43	61.1	2	4	248	0.00	29.863 
15:30	86.5	86.5	86.7	43	61.3	2	5	270	0.00	29.858 
15:35	86.7	86.7	86.7	42	60.8	2	5	270	0.00	29.858 
15:40	87.0	87.0	87.6	44	62.4	2	4	292	0.00	29.858 
15:45	86.7	86.7	86.3	40	59.5	3	5	270	0.00	29.852 
15:50	86.5	86.5	86.3	41	60.0	2	4	315	0.00	29.852 
15:55	86.3	86.3	86.2	42	60.5	2	5	292	0.00	29.852 
16:00	86.5	86.5	86.5	42	60.6	1	3	292	0.00	29.849 
16:05	86.5	86.5	86.7	43	61.3	1	4	292	0.00	29.849 
16:10	86.5	86.5	86.7	43	61.3	2	5	292	0.00	29.849 
16:15	86.7	86.7	86.7	42	60.8	1	4	292	0.00	29.849 
16:20	86.1	86.1	86.5	44	61.6	1	5	270	0.00	29.849 
16:25	85.3	85.3	86.1	47	62.8	1	4	292	0.00	29.849 
16:30	84.5	84.5	85.3	48	62.6	1	4	315	0.00	29.849 
16:35	84.1	84.1	85.0	49	62.8	1	3	315	0.00	29.849 
16:40	84.0	84.0	84.9	49	62.8	1	4	292	0.00	29.849 
16:45	84.3	84.3	85.1	48	62.4	1	3	292	0.00	29.849 
16:50	84.7	84.7	85.6	48	62.8	2	4	315	0.00	29.849 
16:55	84.7	84.7	85.4	47	62.2	1	5	270	0.00	29.849 
17:00	84.3	84.3	85.3	49	63.0	1	2	270	0.00	29.844 
17:05	84.0	84.0	84.9	49	62.8	1	2	270	0.00	29.844 
17:10	84.0	84.0	85.1	50	63.3	0	2	270	0.00	29.844 
17:15	84.1	84.1	85.3	50	63.4	1	4	270	0.00	29.839 
17:20	84.3	84.3	85.1	48	62.4	2	3	270	0.00	29.839 
17:25	84.5	84.5	85.3	48	62.6	2	5	315	0.00	29.839 
17:30	84.7	84.7	85.6	48	62.8	1	4	315	0.00	29.838 
17:35	84.7	84.7	85.4	47	62.2	1	5	315	0.00	29.838 
17:40	84.5	84.5	85.1	47	62.0	1	3	315	0.00	29.838 
17:45	84.5	84.5	85.3	48	62.6	1	3	315	0.00	29.839 
17:50	84.7	84.7	85.4	47	62.2	1	2	315	0.00	29.839 
17:55	84.7	84.7	85.4	47	62.2	1	3	315	0.00	29.839 
18:00	84.3	84.3	84.7	46	61.2	1	3	315	0.00	29.838 
18:05	84.3	84.3	84.9	47	61.8	1	4	315	0.00	29.838 
18:10	84.1	84.1	84.4	46	61.1	1	3	292	0.00	29.838 
18:15	84.0	84.0	84.5	47	61.6	1	3	292	0.00	29.838 
18:20	83.8	83.8	84.3	47	61.4	0	2	315	0.00	29.838 
18:25	83.6	83.6	83.9	46	60.6	1	4	292	0.00	29.838 
18:30	83.4	83.4	84.0	48	61.6	0	1	292	0.00	29.840 
18:35	83.4	83.4	84.2	49	62.2	0	2	292	0.00	29.840 
18:40	83.4	83.4	83.7	46	60.4	1	3	292	0.00	29.840 
18:45	83.4	83.4	83.7	46	60.4	1	3	292	0.00	29.841 
18:50	83.2	83.2	83.4	46	60.2	1	3	292	0.00	29.841 
18:55	83.0	83.0	83.2	46	60.1	0	2	292	0.00	29.841 
19:00	82.8	82.8	83.2	47	60.5	0	1	292	0.00	29.848 
19:05	82.6	82.6	83.1	48	60.9	0	1	292	0.00	29.848 
19:10	82.2	82.2	82.7	48	60.5	0	1	292	0.00	29.848 
19:15	81.8	81.8	82.3	48	60.2	0	2	292	0.00	29.852 
19:20	81.4	81.4	82.0	49	60.4	0	2	292	0.00	29.852 
19:25	81.1	81.1	81.6	48	59.5	0	1	292	0.00	29.852 
19:30	80.7	80.7	81.1	47	58.6	0	1	292	0.00	29.856 
19:35	80.3	80.3	80.8	47	58.2	0	1	292	0.00	29.856 
19:40	80.1	80.1	80.6	47	58.0	0	1	292	0.00	29.856 
19:45	79.8	79.8	80.4	47	57.8	0	1	292	0.00	29.857 
19:50	79.6	79.6	80.2	47	57.6	0	1	292	0.00	29.857 
19:55	79.2	79.2	79.9	47	57.2	0	1	292	0.00	29.857 
20:00	78.8	78.8	79.7	48	57.4	0	1	292	0.00	29.865 
20:05	78.6	78.6	79.5	48	57.2	0	0	---	0.00	29.865 
20:10	78.3	78.3	79.4	49	57.5	0	0	---	0.00	29.865 
20:15	77.7	77.7	79.0	49	57.0	0	1	292	0.00	29.871 
20:20	77.4	77.4	78.8	50	57.3	0	0	---	0.00	29.871 
20:25	77.0	77.0	78.6	50	56.9	0	0	---	0.00	29.871 
20:30	76.7	76.7	78.4	51	57.2	0	0	---	0.00	29.869 
20:35	76.3	76.3	78.2	51	56.8	0	0	---	0.00	29.869 
20:40	76.0	76.0	78.1	51	56.5	0	0	---	0.00	29.869 
20:45	75.8	75.8	78.0	52	56.9	0	0	---	0.00	29.875 
20:50	75.6	75.6	77.9	52	56.7	0	0	---	0.00	29.875 
20:55	75.3	75.3	77.7	52	56.4	0	0	---	0.00	29.875 
21:00	75.1	75.1	77.6	52	56.3	0	0	---	0.00	29.888 
21:05	75.1	75.1	77.6	52	56.3	0	0	---	0.00	29.888 
21:10	75.1	75.1	77.6	53	56.8	0	0	---	0.00	29.888 
21:15	74.7	74.7	74.7	54	56.9	0	0	---	0.00	29.892 
21:20	74.6	74.6	74.6	54	56.8	0	0	---	0.00	29.892 
21:25	74.2	74.2	74.2	54	56.5	0	0	---	0.00	29.892 
21:30	73.9	73.9	73.9	55	56.7	0	0	---	0.00	29.894 
21:35	73.5	73.5	73.5	56	56.8	0	0	---	0.00	29.894 
21:40	73.3	73.3	73.3	57	57.1	0	0	---	0.00	29.894 
21:45	73.0	73.0	73.0	57	56.9	0	0	---	0.00	29.894 
21:50	72.8	72.8	72.8	58	57.1	0	0	---	0.00	29.894 
21:55	72.8	72.8	72.8	58	57.1	0	0	---	0.00	29.894 
22:00	72.7	72.7	72.7	59	57.5	0	1	292	0.00	29.898 
22:05	72.5	72.5	72.5	59	57.3	0	0	---	0.00	29.898 
22:10	72.3	72.3	72.3	59	57.2	0	0	---	0.00	29.898 
22:15	72.1	72.1	72.1	60	57.4	0	0	---	0.00	29.901 
22:20	72.1	72.1	72.1	60	57.4	0	0	---	0.00	29.901 
22:25	72.0	72.0	72.0	60	57.3	0	1	292	0.00	29.901 
22:30	71.8	71.8	71.8	60	57.2	0	0	---	0.00	29.905 
22:35	71.6	71.6	71.6	60	57.0	0	0	---	0.00	29.905 
22:40	71.5	71.5	71.5	61	57.3	0	0	---	0.00	29.905 
22:45	71.1	71.1	71.1	62	57.4	0	0	---	0.00	29.903 
22:50	70.8	70.8	70.8	62	57.1	0	0	---	0.00	29.903 
22:55	70.4	70.4	70.4	62	56.7	0	0	---	0.00	29.903 
23:00	70.3	70.3	70.3	62	56.7	0	0	---	0.00	29.903 
23:05	69.9	69.9	69.9	63	56.7	0	0	---	0.00	29.903 
23:10	69.6	69.6	69.6	64	56.9	0	0	---	0.00	29.903 
23:15	69.3	69.3	69.3	65	57.0	0	0	---	0.00	29.900 
23:20	68.9	68.9	68.9	65	56.6	0	0	---	0.00	29.900 
23:25	68.6	68.6	68.6	66	56.8	0	0	---	0.00	29.900 
23:30	68.4	68.4	68.4	66	56.6	0	0	---	0.00	29.902 
23:35	68.1	68.1	68.1	67	56.7	0	0	---	0.00	29.902 
23:40	67.8	67.8	67.8	68	56.8	0	0	---	0.00	29.902 
23:45	67.4	67.4	67.4	70	57.3	0	0	---	0.00	29.901 
23:50	67.1	67.1	67.1	71	57.4	0	0	---	0.00	29.901 
23:55	66.8	66.8	66.8	71	57.1	0	0	---	0.00	29.901 

CoCoRaHS
IN-AL-39
A2 Web Hosting
Creative Commons License
GoDaddy
search engine by freefind advanced

loaded 2018-11-14 04:03:02 • last modified 2010-11-18 10:43:29
Privacy PolicyDisclaimer
• wx.awcolley.com is powered by PmWiki v.2002016 •
• all content (unless otherwise noted) © 2018 A W Colley